createdAt,value
2019-06-20T00:00:06.505Z,83.00
2019-06-20T00:02:35.351Z,83.20
2019-06-20T00:05:06.759Z,82.60
2019-06-20T00:07:35.558Z,82.40
2019-06-20T00:10:05.366Z,81.80
2019-06-20T00:12:34.219Z,81.60
2019-06-20T00:15:03.283Z,81.50
2019-06-20T00:17:32.073Z,81.00
2019-06-20T00:20:00.912Z,80.10
2019-06-20T00:22:29.650Z,79.80
2019-06-20T00:24:58.518Z,80.00
2019-06-20T00:27:27.594Z,80.00
2019-06-20T00:29:56.396Z,79.60
2019-06-20T00:32:25.242Z,80.00
2019-06-20T00:34:54.033Z,80.70
2019-06-20T00:37:22.845Z,80.30
2019-06-20T00:39:52.048Z,80.90
2019-06-20T00:42:20.847Z,80.80
2019-06-20T00:44:49.802Z,80.60
2019-06-20T00:47:18.650Z,80.70
2019-06-20T00:49:47.603Z,81.50
2019-06-20T00:52:16.412Z,81.60
2019-06-20T00:54:45.235Z,81.90
2019-06-20T00:57:14.079Z,82.50
2019-06-20T00:59:42.858Z,82.10
2019-06-20T01:02:11.717Z,82.10
2019-06-20T01:04:40.492Z,82.50
2019-06-20T01:07:09.304Z,82.60
2019-06-20T01:09:38.571Z,82.80
2019-06-20T01:12:07.369Z,82.30
2019-06-20T01:14:36.233Z,83.90
2019-06-20T01:17:05.084Z,83.80
2019-06-20T01:19:33.840Z,83.50
2019-06-20T01:22:03.008Z,82.60
2019-06-20T01:24:31.784Z,82.90
2019-06-20T01:27:00.507Z,83.30
2019-06-20T01:29:29.494Z,81.90
2019-06-20T01:31:58.291Z,82.10
2019-06-20T01:34:27.143Z,82.50
2019-06-20T01:36:56.127Z,82.80
2019-06-20T01:39:24.857Z,83.00
2019-06-20T01:41:53.705Z,83.00
2019-06-20T01:44:22.593Z,82.30
2019-06-20T01:46:51.486Z,83.70
2019-06-20T01:49:20.325Z,82.60
2019-06-20T01:51:49.129Z,83.00
2019-06-20T01:54:17.885Z,82.30
2019-06-20T01:56:46.764Z,82.40
2019-06-20T01:59:15.490Z,82.10
2019-06-20T02:01:44.279Z,81.60
2019-06-20T02:04:13.189Z,81.50
2019-06-20T02:06:42.032Z,82.20
2019-06-20T02:09:10.858Z,82.30
2019-06-20T02:11:39.689Z,82.10
2019-06-20T02:14:08.497Z,82.50
2019-06-20T02:16:37.409Z,82.30
2019-06-20T02:19:07.676Z,82.20
2019-06-20T02:21:36.559Z,83.10
2019-06-20T02:24:05.626Z,82.90
2019-06-20T02:26:34.616Z,83.30
2019-06-20T02:29:03.561Z,83.80
2019-06-20T02:31:32.595Z,84.00
2019-06-20T02:34:01.323Z,84.70
2019-06-20T02:36:30.158Z,85.10
2019-06-20T02:38:58.940Z,84.10
2019-06-20T02:41:27.779Z,86.10
2019-06-20T02:43:56.640Z,84.50
2019-06-20T02:46:25.460Z,85.60
2019-06-20T02:48:54.386Z,85.50
2019-06-20T02:51:25.495Z,85.70
2019-06-20T02:53:54.776Z,86.70
2019-06-20T02:56:23.585Z,85.90
2019-06-20T02:58:52.342Z,86.60
2019-06-20T03:01:21.197Z,87.00
2019-06-20T03:03:50.072Z,87.50
2019-06-20T03:06:19.076Z,86.80
2019-06-20T03:08:47.934Z,86.50
2019-06-20T03:11:16.782Z,87.50
2019-06-20T03:13:45.575Z,87.40
2019-06-20T03:16:14.314Z,87.40
2019-06-20T03:18:43.194Z,87.60
2019-06-20T03:21:11.972Z,87.60
2019-06-20T03:23:40.758Z,88.50
2019-06-20T03:26:09.878Z,88.10
2019-06-20T03:28:38.655Z,86.80
2019-06-20T03:31:07.434Z,88.30
2019-06-20T03:33:36.241Z,88.70
2019-06-20T03:36:05.339Z,87.10
2019-06-20T03:38:34.176Z,88.00
2019-06-20T03:41:03.111Z,88.20
2019-06-20T03:43:31.990Z,87.00
2019-06-20T03:46:00.826Z,87.30
2019-06-20T03:48:29.631Z,87.90
2019-06-20T03:50:58.429Z,87.70
2019-06-20T03:53:27.181Z,86.90
2019-06-20T03:55:55.963Z,86.90
2019-06-20T03:58:25.135Z,87.80
2019-06-20T04:00:53.886Z,88.10
2019-06-20T04:03:22.791Z,88.20
2019-06-20T04:05:51.566Z,87.90
2019-06-20T04:08:20.301Z,88.40
2019-06-20T04:10:49.023Z,88.40
2019-06-20T04:13:18.000Z,88.70
2019-06-20T04:15:46.988Z,88.80
2019-06-20T04:18:15.847Z,88.60
2019-06-20T04:20:44.689Z,88.50
2019-06-20T04:23:13.489Z,88.10
2019-06-20T04:25:42.243Z,88.00
2019-06-20T04:28:11.150Z,88.30
2019-06-20T04:30:39.888Z,88.60
2019-06-20T04:33:08.837Z,88.30
2019-06-20T04:35:37.938Z,87.90
2019-06-20T04:38:07.031Z,87.60
2019-06-20T04:40:35.877Z,87.90
2019-06-20T04:43:04.668Z,87.40
2019-06-20T04:45:48.747Z,87.50
2019-06-20T04:48:17.956Z,87.30
2019-06-20T04:50:46.790Z,86.40
2019-06-20T04:53:15.618Z,85.90
2019-06-20T04:55:44.452Z,85.20
2019-06-20T04:58:13.282Z,83.30
2019-06-20T05:00:43.835Z,83.90
2019-06-20T05:03:12.571Z,84.70
2019-06-20T05:05:41.704Z,83.80
2019-06-20T05:08:10.566Z,84.00
2019-06-20T05:10:39.367Z,83.40
2019-06-20T05:13:08.675Z,83.50
2019-06-20T05:15:51.654Z,84.50
2019-06-20T05:18:08.030Z,83.10
2019-06-20T05:20:37.375Z,84.40
2019-06-20T05:23:06.285Z,84.80
2019-06-20T05:25:35.600Z,85.40
2019-06-20T05:28:04.368Z,85.50
2019-06-20T05:30:33.224Z,85.90
2019-06-20T05:33:01.948Z,86.10
2019-06-20T05:35:30.692Z,86.30
2019-06-20T05:37:59.478Z,86.60
2019-06-20T05:40:28.266Z,88.40
2019-06-20T05:42:57.048Z,87.70
2019-06-20T05:45:25.824Z,87.40
2019-06-20T05:47:54.575Z,89.40
2019-06-20T05:50:23.419Z,88.40
2019-06-20T05:52:52.897Z,90.00
2019-06-20T05:55:21.739Z,90.40
2019-06-20T05:57:50.615Z,90.20
2019-06-20T06:00:19.892Z,90.20
2019-06-20T06:02:48.658Z,90.10
2019-06-20T06:05:17.455Z,89.40
2019-06-20T06:07:46.239Z,89.40
2019-06-20T06:10:16.668Z,88.00
2019-06-20T06:12:45.773Z,88.60
2019-06-20T06:15:14.932Z,89.00
2019-06-20T06:17:43.706Z,88.80
2019-06-20T06:20:13.018Z,90.40
2019-06-20T06:22:44.692Z,90.00
2019-06-20T06:25:12.522Z,89.80
2019-06-20T06:27:41.475Z,89.60
2019-06-20T06:30:11.819Z,85.90
2019-06-20T06:32:40.861Z,86.40
2019-06-20T06:35:10.463Z,86.00
2019-06-20T06:37:40.165Z,84.20
2019-06-20T06:40:09.904Z,86.70
2019-06-20T06:42:38.704Z,84.40
2019-06-20T06:45:08.847Z,84.30
2019-06-20T06:47:37.747Z,84.10
2019-06-20T06:50:08.310Z,84.90
2019-06-20T06:52:37.117Z,84.10
2019-06-20T06:55:07.058Z,84.40
2019-06-20T06:57:36.187Z,83.50
2019-06-20T07:00:09.967Z,83.60
2019-06-20T07:02:38.784Z,83.90
2019-06-20T07:05:07.986Z,83.60
2019-06-20T07:07:36.841Z,83.80
2019-06-20T07:10:06.955Z,82.90
2019-06-20T07:12:35.722Z,83.50
2019-06-20T07:15:07.208Z,82.10
2019-06-20T07:17:36.038Z,81.50
2019-06-20T07:20:07.171Z,80.10
2019-06-20T07:22:36.769Z,81.00
2019-06-20T07:25:09.236Z,80.50
2019-06-20T07:27:38.219Z,80.50
2019-06-20T07:30:11.819Z,80.70
2019-06-20T07:32:40.655Z,79.30
2019-06-20T07:35:10.096Z,80.10
2019-06-20T07:37:38.953Z,80.80
2019-06-20T07:40:08.420Z,79.50
2019-06-20T07:42:37.469Z,80.00
2019-06-20T07:45:09.951Z,79.40
2019-06-20T07:47:38.838Z,78.10
2019-06-20T07:50:09.582Z,77.70
2019-06-20T07:52:38.377Z,77.40
2019-06-20T07:55:08.241Z,75.60
2019-06-20T07:57:37.383Z,75.50
2019-06-20T08:00:11.581Z,75.30
2019-06-20T08:02:40.585Z,73.60
2019-06-20T08:05:09.829Z,71.50
2019-06-20T08:07:38.552Z,72.60
2019-06-20T08:10:12.743Z,71.70
2019-06-20T08:12:41.634Z,70.00
2019-06-20T08:15:15.479Z,72.70
2019-06-20T08:17:42.898Z,71.60
2019-06-20T08:20:12.532Z,72.60
2019-06-20T08:22:41.425Z,70.30
2019-06-20T08:25:10.658Z,69.40
2019-06-20T08:27:52.986Z,70.80
2019-06-20T08:30:24.354Z,70.90
2019-06-20T08:32:53.361Z,70.90
2019-06-20T08:35:23.865Z,68.20
2019-06-20T08:37:53.937Z,68.30
2019-06-20T08:40:24.851Z,68.00
2019-06-20T08:42:55.255Z,68.90
2019-06-20T08:45:27.161Z,69.60
2019-06-20T08:47:57.006Z,67.20
2019-06-20T08:50:26.772Z,69.70
2019-06-20T08:52:57.624Z,66.50
2019-06-20T08:55:26.442Z,68.20
2019-06-20T08:57:56.371Z,67.80
2019-06-20T09:00:27.139Z,67.20
2019-06-20T09:02:57.348Z,66.30
2019-06-20T09:05:29.502Z,68.20
2019-06-20T09:07:58.983Z,66.60
2019-06-20T09:10:33.202Z,66.30
2019-06-20T09:13:03.711Z,64.10
2019-06-20T09:15:32.542Z,60.40
2019-06-20T09:18:02.735Z,63.70
2019-06-20T09:20:31.719Z,60.70
2019-06-20T09:23:01.154Z,61.90
2019-06-20T09:25:30.121Z,62.60
2019-06-20T09:28:00.414Z,60.30
2019-06-20T09:30:29.748Z,65.60
2019-06-20T09:32:59.889Z,62.00
2019-06-20T09:35:28.836Z,59.30
2019-06-20T09:37:57.581Z,59.40
2019-06-20T09:40:27.752Z,58.50
2019-06-20T09:42:56.499Z,59.10
2019-06-20T09:45:25.599Z,57.00
2019-06-20T09:47:55.948Z,57.20
2019-06-20T09:50:25.517Z,57.60
2019-06-20T09:52:56.651Z,57.80
2019-06-20T09:55:25.598Z,58.60
2019-06-20T09:57:55.766Z,59.70
2019-06-20T10:00:26.460Z,56.80
2019-06-20T10:02:56.314Z,56.10
2019-06-20T10:05:25.681Z,59.60
2019-06-20T10:07:54.601Z,61.00
2019-06-20T10:10:28.718Z,58.90
2019-06-20T10:12:56.905Z,58.30
2019-06-20T10:15:30.891Z,56.90
2019-06-20T10:17:59.198Z,57.00
2019-06-20T10:20:28.109Z,55.00
2019-06-20T10:22:57.448Z,56.70
2019-06-20T10:25:26.437Z,53.50
2019-06-20T10:27:55.270Z,55.00
2019-06-20T10:30:25.410Z,52.90
2019-06-20T10:32:54.145Z,53.70
2019-06-20T10:35:23.131Z,53.10
2019-06-20T10:37:52.940Z,54.50
2019-06-20T10:40:23.679Z,54.20
2019-06-20T10:42:53.003Z,51.00
2019-06-20T10:45:25.132Z,53.60
2019-06-20T10:47:54.881Z,52.80
2019-06-20T10:50:23.893Z,54.20
2019-06-20T10:52:53.488Z,53.20
2019-06-20T10:55:22.318Z,50.70
2019-06-20T10:57:51.891Z,52.20
2019-06-20T11:00:30.754Z,52.10
2019-06-20T11:02:53.264Z,51.80
2019-06-20T11:05:22.414Z,51.90
2019-06-20T11:07:51.421Z,50.90
2019-06-20T11:10:21.585Z,50.40
2019-06-20T11:12:55.717Z,51.40
2019-06-20T11:15:21.830Z,49.30
2019-06-20T11:17:50.715Z,50.00
2019-06-20T11:20:19.822Z,49.90
2019-06-20T11:22:48.685Z,50.30
2019-06-20T11:25:19.387Z,47.50
2019-06-20T11:27:48.813Z,49.50
2019-06-20T11:30:23.184Z,49.40
2019-06-20T11:32:51.958Z,50.80
2019-06-20T11:35:20.773Z,50.30
2019-06-20T11:37:49.739Z,51.00
2019-06-20T11:40:18.901Z,49.30
2019-06-20T11:42:47.644Z,48.50
2019-06-20T11:45:17.021Z,49.60
2019-06-20T11:47:47.118Z,48.40
2019-06-20T11:50:17.116Z,50.00
2019-06-20T11:52:46.089Z,49.80
2019-06-20T11:55:15.979Z,51.20
2019-06-20T11:57:44.864Z,51.50
2019-06-20T12:00:14.778Z,51.40
2019-06-20T12:02:44.258Z,52.00
2019-06-20T12:05:14.005Z,53.90
2019-06-20T12:07:43.667Z,56.20
2019-06-20T12:10:13.898Z,59.60
2019-06-20T12:12:42.686Z,59.80
2019-06-20T12:15:12.111Z,60.70
2019-06-20T12:17:41.794Z,58.80
2019-06-20T12:20:12.442Z,59.00
2019-06-20T12:22:41.799Z,58.50
2019-06-20T12:25:11.940Z,60.30
2019-06-20T12:27:41.239Z,60.00
2019-06-20T12:30:12.182Z,59.00
2019-06-20T12:32:42.375Z,58.60
2019-06-20T12:35:11.908Z,59.10
2019-06-20T12:37:40.698Z,59.20
2019-06-20T12:40:11.336Z,56.00
2019-06-20T12:42:41.754Z,56.60
2019-06-20T12:45:11.161Z,56.40
2019-06-20T12:47:40.315Z,55.70
2019-06-20T12:50:11.431Z,54.70
2019-06-20T12:52:41.239Z,55.10
2019-06-20T12:55:12.477Z,54.20
2019-06-20T12:57:42.260Z,54.10
2019-06-20T13:00:12.903Z,53.20
2019-06-20T13:02:42.480Z,51.90
2019-06-20T13:05:13.900Z,53.70
2019-06-20T13:07:44.044Z,52.80
2019-06-20T13:10:13.567Z,51.90
2019-06-20T13:12:42.755Z,52.90
2019-06-20T13:15:13.421Z,50.50
2019-06-20T13:17:43.638Z,51.40
2019-06-20T13:20:13.422Z,50.10
2019-06-20T13:22:42.873Z,49.60
2019-06-20T13:25:12.183Z,49.40
2019-06-20T13:27:41.224Z,48.90
2019-06-20T13:30:11.096Z,50.90
2019-06-20T13:32:41.678Z,52.00
2019-06-20T13:35:11.776Z,52.30
2019-06-20T13:37:42.052Z,52.50
2019-06-20T13:40:11.780Z,53.60
2019-06-20T13:42:42.116Z,53.30
2019-06-20T13:45:22.874Z,53.90
2019-06-20T13:47:51.998Z,54.00
2019-06-20T13:50:21.486Z,53.60
2019-06-20T13:52:51.256Z,52.70
2019-06-20T13:55:20.342Z,53.00
2019-06-20T13:57:49.429Z,50.50
2019-06-20T14:00:20.514Z,51.00
2019-06-20T14:02:51.161Z,48.40
2019-06-20T14:05:20.160Z,45.70
2019-06-20T14:07:53.177Z,48.80
2019-06-20T14:10:20.138Z,48.60
2019-06-20T14:12:49.156Z,47.60
2019-06-20T14:15:18.554Z,46.70
2019-06-20T14:17:48.002Z,47.50
2019-06-20T14:20:18.923Z,49.20
2019-06-20T14:22:49.411Z,50.90
2019-06-20T14:25:20.156Z,51.80
2019-06-20T14:27:49.426Z,52.10
2019-06-20T14:30:19.153Z,54.10
2019-06-20T14:32:49.466Z,53.10
2019-06-20T14:35:19.093Z,52.80
2019-06-20T14:37:49.212Z,54.70
2019-06-20T14:40:18.657Z,56.60
2019-06-20T14:42:47.908Z,57.80
2019-06-20T14:45:18.604Z,59.00
2019-06-20T14:47:47.335Z,58.80
2019-06-20T14:50:17.509Z,59.20
2019-06-20T14:52:48.070Z,58.50
2019-06-20T14:55:16.913Z,59.60
2019-06-20T14:57:46.991Z,59.50
2019-06-20T15:00:16.901Z,58.20
2019-06-20T15:02:47.248Z,58.00
2019-06-20T15:05:17.516Z,57.60
2019-06-20T15:07:47.287Z,61.70
2019-06-20T15:10:17.085Z,67.30
2019-06-20T15:12:47.678Z,68.70
2019-06-20T15:15:16.676Z,70.30
2019-06-20T15:17:48.812Z,67.00
2019-06-20T15:20:16.194Z,66.30
2019-06-20T15:22:46.751Z,66.40
2019-06-20T15:25:15.934Z,63.70
2019-06-20T15:27:47.232Z,63.00
2019-06-20T15:30:15.930Z,59.40
2019-06-20T15:33:00.806Z,59.60
2019-06-20T15:35:17.954Z,58.60
2019-06-20T15:37:48.452Z,58.50
2019-06-20T15:40:17.683Z,59.70
2019-06-20T15:42:49.560Z,59.00
2019-06-20T15:45:19.217Z,58.40
2019-06-20T15:47:48.086Z,57.20
2019-06-20T15:50:17.758Z,57.40
2019-06-20T15:52:47.277Z,56.10
2019-06-20T15:55:19.225Z,54.80
2019-06-20T15:57:48.234Z,55.20
2019-06-20T16:00:17.679Z,55.50
2019-06-20T16:02:46.599Z,56.70
2019-06-20T16:05:15.437Z,54.40
2019-06-20T16:07:44.484Z,54.20
2019-06-20T16:10:13.993Z,54.30
2019-06-20T16:12:42.744Z,55.20
2019-06-20T16:15:13.913Z,58.20
2019-06-20T16:17:42.834Z,64.30
2019-06-20T16:20:12.195Z,70.10
2019-06-20T16:22:41.127Z,71.80
2019-06-20T16:25:10.214Z,72.10
2019-06-20T16:27:38.951Z,74.60
2019-06-20T16:30:09.720Z,69.40
2019-06-20T16:32:38.871Z,76.80
2019-06-20T16:35:08.319Z,73.30
2019-06-20T16:37:37.369Z,70.50
2019-06-20T16:40:08.720Z,71.00
2019-06-20T16:42:37.970Z,75.20
2019-06-20T16:45:07.506Z,78.40
2019-06-20T16:47:36.329Z,81.60
2019-06-20T16:50:07.227Z,84.00
2019-06-20T16:52:35.944Z,80.60
2019-06-20T16:55:06.133Z,79.00
2019-06-20T16:57:34.892Z,80.90
2019-06-20T17:00:07.742Z,80.80
2019-06-20T17:02:36.613Z,78.50
2019-06-20T17:05:08.481Z,78.80
2019-06-20T17:07:37.473Z,83.40
2019-06-20T17:10:07.047Z,82.00
2019-06-20T17:12:35.868Z,84.60
2019-06-20T17:15:05.914Z,81.80
2019-06-20T17:17:34.815Z,83.90
2019-06-20T17:20:05.176Z,87.30
2019-06-20T17:22:33.936Z,85.40
2019-06-20T17:25:03.062Z,84.90
2019-06-20T17:27:31.787Z,82.20
2019-06-20T17:30:00.661Z,82.70
2019-06-20T17:32:29.398Z,81.50
2019-06-20T17:34:58.193Z,80.20
2019-06-20T17:37:26.966Z,81.10
2019-06-20T17:39:55.707Z,81.60
2019-06-20T17:42:24.467Z,82.50
2019-06-20T17:44:53.500Z,82.40
2019-06-20T17:47:22.341Z,83.80
2019-06-20T17:49:51.068Z,83.90
2019-06-20T17:52:19.798Z,84.20
2019-06-20T17:54:48.603Z,84.90
2019-06-20T17:57:17.394Z,86.10
2019-06-20T17:59:46.147Z,84.90
2019-06-20T18:02:14.985Z,84.60
2019-06-20T18:04:43.828Z,85.30
2019-06-20T18:07:12.607Z,84.40
2019-06-20T18:09:41.384Z,84.20
2019-06-20T18:12:10.211Z,82.00
2019-06-20T18:14:38.981Z,81.40
2019-06-20T18:17:07.797Z,75.40
2019-06-20T18:19:36.545Z,66.60
2019-06-20T18:22:05.322Z,74.30
2019-06-20T18:24:34.227Z,78.30
2019-06-20T18:27:03.221Z,79.20
2019-06-20T18:29:31.939Z,80.70
2019-06-20T18:32:00.731Z,81.70
2019-06-20T18:34:30.575Z,84.30
2019-06-20T18:36:59.558Z,83.40
2019-06-20T18:39:28.443Z,79.40
2019-06-20T18:41:57.823Z,83.60
2019-06-20T18:44:26.606Z,86.90
2019-06-20T18:46:55.437Z,88.50
2019-06-20T18:49:24.200Z,86.00
2019-06-20T18:51:52.931Z,86.70
2019-06-20T18:54:22.515Z,87.10
2019-06-20T18:56:51.767Z,85.90
2019-06-20T18:59:20.481Z,85.90
2019-06-20T19:01:49.261Z,81.00
2019-06-20T19:04:17.998Z,82.80
2019-06-20T19:06:46.714Z,80.20
2019-06-20T19:09:15.497Z,81.40
2019-06-20T19:11:44.286Z,77.40
2019-06-20T19:14:13.455Z,76.30
2019-06-20T19:16:42.283Z,69.60
2019-06-20T19:19:11.129Z,69.60
2019-06-20T19:21:41.775Z,71.80
2019-06-20T19:24:10.533Z,69.50
2019-06-20T19:26:39.413Z,70.00
2019-06-20T19:29:08.149Z,68.20
2019-06-20T19:31:37.418Z,64.80
2019-06-20T19:34:06.293Z,69.20
2019-06-20T19:36:35.039Z,65.20
2019-06-20T19:39:04.795Z,65.50
2019-06-20T19:41:33.999Z,64.90
2019-06-20T19:44:02.856Z,64.60
2019-06-20T19:46:31.598Z,63.50
2019-06-20T19:49:00.440Z,65.40
2019-06-20T19:51:29.641Z,65.00
2019-06-20T19:53:58.552Z,63.40
2019-06-20T19:56:27.374Z,62.20
2019-06-20T19:58:56.418Z,64.20
2019-06-20T20:01:25.267Z,62.00
2019-06-20T20:03:54.010Z,64.20
2019-06-20T20:06:22.808Z,65.60
2019-06-20T20:08:51.735Z,64.10
2019-06-20T20:11:20.477Z,64.40
2019-06-20T20:13:49.681Z,65.30
2019-06-20T20:16:18.423Z,64.20
2019-06-20T20:18:48.240Z,65.20
2019-06-20T20:21:16.984Z,65.60
2019-06-20T20:23:45.799Z,65.80
2019-06-20T20:26:14.582Z,65.50
2019-06-20T20:28:43.309Z,66.60
2019-06-20T20:31:12.373Z,65.80
2019-06-20T20:33:41.167Z,66.80
2019-06-20T20:36:23.937Z,67.50
2019-06-20T20:38:40.766Z,67.40
2019-06-20T20:41:09.527Z,67.40
2019-06-20T20:43:38.884Z,67.80
2019-06-20T20:46:07.604Z,67.90
2019-06-20T20:48:36.602Z,68.40
2019-06-20T20:51:06.117Z,67.90
2019-06-20T20:53:35.017Z,69.80
2019-06-20T20:56:03.871Z,68.50
2019-06-20T20:58:32.626Z,69.10
2019-06-20T21:01:10.018Z,70.40
2019-06-20T21:03:38.859Z,70.80
2019-06-20T21:06:08.793Z,71.20
2019-06-20T21:08:37.652Z,72.20
2019-06-20T21:11:06.869Z,72.10
2019-06-20T21:13:35.673Z,72.70
2019-06-20T21:16:04.671Z,72.80
2019-06-20T21:18:34.369Z,70.50
2019-06-20T21:21:03.212Z,70.40
2019-06-20T21:23:31.947Z,72.00
2019-06-20T21:26:00.717Z,73.40
2019-06-20T21:28:29.653Z,74.00
2019-06-20T21:30:58.791Z,74.80
2019-06-20T21:33:27.518Z,75.20
2019-06-20T21:36:08.082Z,75.90
2019-06-20T21:38:27.766Z,74.80
2019-06-20T21:40:56.903Z,72.60
2019-06-20T21:43:26.008Z,72.70
2019-06-20T21:45:55.243Z,73.00
2019-06-20T21:48:23.992Z,73.50
2019-06-20T21:50:52.712Z,73.80
2019-06-20T21:53:21.573Z,73.50
2019-06-20T21:55:50.653Z,73.00
2019-06-20T21:58:37.463Z,73.60
2019-06-20T22:01:08.374Z,73.20
2019-06-20T22:03:37.181Z,73.50
2019-06-20T22:06:06.129Z,73.60
2019-06-20T22:08:36.162Z,73.40
2019-06-20T22:11:05.318Z,73.90
2019-06-20T22:13:34.065Z,73.60
2019-06-20T22:16:02.790Z,74.00
2019-06-20T22:18:32.674Z,73.50
2019-06-20T22:21:01.403Z,73.40
2019-06-20T22:23:30.195Z,74.40
2019-06-20T22:25:58.983Z,74.70
2019-06-20T22:28:27.702Z,74.50
2019-06-20T22:30:56.762Z,75.10
2019-06-20T22:33:25.811Z,75.80
2019-06-20T22:35:54.536Z,75.00
2019-06-20T22:38:23.393Z,75.70
2019-06-20T22:40:52.198Z,75.60
2019-06-20T22:43:21.078Z,76.00
2019-06-20T22:45:49.834Z,75.10
2019-06-20T22:48:18.685Z,74.90
2019-06-20T22:50:47.434Z,74.60
2019-06-20T22:53:16.189Z,74.90
2019-06-20T22:55:44.963Z,75.90
2019-06-20T22:58:15.324Z,75.60
2019-06-20T23:00:45.030Z,75.70
2019-06-20T23:03:13.762Z,75.70
2019-06-20T23:05:42.885Z,76.40
2019-06-20T23:08:11.767Z,76.00
2019-06-20T23:10:40.510Z,76.60
2019-06-20T23:13:09.238Z,77.00
2019-06-20T23:15:37.952Z,76.40
2019-06-20T23:18:06.729Z,76.60
2019-06-20T23:20:35.458Z,75.90
2019-06-20T23:23:04.377Z,76.30
2019-06-20T23:25:33.737Z,76.30
2019-06-20T23:28:02.484Z,76.10
2019-06-20T23:30:32.832Z,75.80
2019-06-20T23:33:01.957Z,75.80
2019-06-20T23:35:30.693Z,75.60
2019-06-20T23:37:59.549Z,75.40
2019-06-20T23:40:28.338Z,75.50
2019-06-20T23:42:57.149Z,75.30
2019-06-20T23:45:25.964Z,75.40
2019-06-20T23:47:54.860Z,75.90
2019-06-20T23:50:25.374Z,75.90
2019-06-20T23:52:55.811Z,76.70
2019-06-20T23:55:24.561Z,75.70
2019-06-20T23:57:53.542Z,75.80
